Time;durP1;ratioP1;P1;durP2;ratioP2;P2;SDS_P1;SDS_P2;PMS_P1;PMS_P2;Temp;Humidity;BMP_temperature;BMP_pressure;BME280_temperature;BME280_humidity;BME280_pressure;Samples;Min_cycle;Max_cycle;Signal;HPM_P1;HPM_P2
2022/12/24 00:00:26;;;;;;;10.53;3.57;;;12.90;99.90;;;;;;5096752;28;20281;-88
2022/12/24 00:02:52;;;;;;;5.70;3.27;;;12.80;99.90;;;;;;5113644;28;20220;-89
2022/12/24 00:05:18;;;;;;;5.37;3.50;;;12.70;99.90;;;;;;5114449;28;20186;-85
2022/12/24 00:07:43;;;;;;;9.73;3.50;;;12.70;99.90;;;;;;5114607;28;20244;-85
2022/12/24 00:10:09;;;;;;;6.83;3.50;;;12.60;99.90;;;;;;5115106;28;20261;-83
2022/12/24 00:12:35;;;;;;;11.33;3.40;;;12.70;99.90;;;;;;5115512;28;20205;-86
2022/12/24 00:15:02;;;;;;;11.97;3.80;;;12.60;99.90;;;;;;5110875;28;20216;-85
2022/12/24 00:17:28;;;;;;;7.20;3.53;;;12.70;99.90;;;;;;5113869;28;20200;-86
2022/12/24 00:19:54;;;;;;;5.17;3.10;;;12.80;99.90;;;;;;5114051;28;20190;-87
2022/12/24 00:22:20;;;;;;;7.47;3.40;;;12.80;99.90;;;;;;5114452;28;20239;-84
2022/12/24 00:24:45;;;;;;;9.33;3.40;;;12.70;99.90;;;;;;5114585;28;20188;-84
2022/12/24 00:27:11;;;;;;;11.23;3.67;;;12.70;99.90;;;;;;5115014;28;20211;-83
2022/12/24 00:29:37;;;;;;;12.20;3.63;;;12.60;99.90;;;;;;5113740;28;20238;-85
2022/12/24 00:32:06;;;;;;;7.50;3.70;;;12.40;99.90;;;;;;5115405;28;20220;-86
2022/12/24 00:34:32;;;;;;;8.97;4.13;;;12.10;99.90;;;;;;5116896;28;20172;-87
2022/12/24 00:36:58;;;;;;;10.17;3.40;;;11.90;99.90;;;;;;5116729;28;20200;-86
2022/12/24 00:39:24;;;;;;;8.33;3.23;;;12.00;99.90;;;;;;5115845;28;20207;-88
2022/12/24 00:41:50;;;;;;;6.00;3.33;;;12.00;99.90;;;;;;5097612;28;20190;-87
2022/12/24 00:44:16;;;;;;;7.30;3.63;;;12.10;99.90;;;;;;5111714;28;20245;-84
2022/12/24 00:46:41;;;;;;;8.60;3.83;;;12.10;99.90;;;;;;5113085;28;20214;-85
2022/12/24 00:49:09;;;;;;;9.60;3.97;;;12.00;99.90;;;;;;5113591;28;20287;-85
2022/12/24 00:51:35;;;;;;;7.53;3.53;;;12.00;99.90;;;;;;5113969;28;20196;-84
2022/12/24 00:54:01;;;;;;;8.10;3.80;;;11.90;99.90;;;;;;5108982;28;20188;-84
2022/12/24 00:56:27;;;;;;;9.97;4.37;;;11.90;99.90;;;;;;5112072;28;20204;-85
2022/12/24 00:58:53;;;;;;;7.77;3.90;;;11.90;99.90;;;;;;5112172;28;20216;-85
2022/12/24 01:01:19;;;;;;;7.83;4.17;;;11.90;99.90;;;;;;5111440;28;20188;-85
2022/12/24 01:03:45;;;;;;;11.53;4.23;;;11.90;99.90;;;;;;5110986;28;20223;-84
2022/12/24 01:06:14;;;;;;;9.70;3.73;;;11.90;99.90;;;;;;5093365;28;20194;-87
2022/12/24 01:08:41;;;;;;;7.80;3.90;;;11.80;99.90;;;;;;5111021;28;20218;-86
2022/12/24 01:11:08;;;;;;;8.93;3.70;;;11.80;99.90;;;;;;5102939;28;20192;-85
2022/12/24 01:13:34;;;;;;;8.23;3.73;;;11.80;99.90;;;;;;5110219;28;20211;-85
2022/12/24 01:16:01;;;;;;;8.83;3.60;;;11.80;99.90;;;;;;5111151;28;20190;-84
2022/12/24 01:18:26;;;;;;;10.83;4.03;;;11.80;99.90;;;;;;5111436;28;20248;-84
2022/12/24 01:21:01;;;;;;;8.13;3.40;;;11.80;99.90;;;;;;5108835;28;20203;-85
2022/12/24 01:23:27;;;;;;;8.30;3.60;;;11.80;99.90;;;;;;5108338;28;20639;-83
2022/12/24 01:25:53;;;;;;;9.20;3.90;;;11.90;99.90;;;;;;5107909;28;20278;-84
2022/12/24 01:28:20;;;;;;;7.93;3.73;;;11.90;99.90;;;;;;5111522;28;20811;-86
2022/12/24 01:30:46;;;;;;;11.30;3.80;;;11.90;99.90;;;;;;5110201;28;20176;-85
2022/12/24 01:33:12;;;;;;;7.67;3.20;;;11.90;99.90;;;;;;5110786;28;20187;-84
2022/12/24 01:35:39;;;;;;;8.73;3.50;;;11.90;99.90;;;;;;5105491;28;20184;-86
2022/12/24 01:38:05;;;;;;;12.33;4.10;;;11.90;99.90;;;;;;5109837;28;20204;-84
2022/12/24 01:43:24;;;;;;;9.00;3.73;;;11.90;99.90;;;;;;5111873;28;20192;-87
2022/12/24 01:45:49;;;;;;;11.23;3.90;;;11.90;99.90;;;;;;5111433;28;20708;-85
2022/12/24 01:48:58;;;;;;;10.00;4.23;;;11.80;99.90;;;;;;5110959;28;20231;-86
2022/12/24 01:51:57;;;;;;;8.13;3.47;;;11.80;99.90;;;;;;5103818;28;20203;-85
2022/12/24 01:54:54;;;;;;;9.40;3.97;;;11.80;99.90;;;;;;5095849;28;20199;-87
2022/12/24 01:57:48;;;;;;;7.70;3.77;;;11.70;99.90;;;;;;5094030;28;20199;-85
2022/12/24 02:00:15;;;;;;;12.47;3.77;;;11.70;99.90;;;;;;5107114;28;20434;-83
2022/12/24 02:02:47;;;;;;;7.17;3.70;;;11.70;99.90;;;;;;5112834;28;20188;-86
2022/12/24 02:05:19;;;;;;;8.50;4.20;;;11.60;99.90;;;;;;5106957;28;20185;-88
2022/12/24 02:07:46;;;;;;;11.20;4.10;;;11.60;99.90;;;;;;5103721;28;20261;-85
2022/12/24 02:10:13;;;;;;;11.03;3.63;;;11.60;99.90;;;;;;5110815;28;20265;-85
2022/12/24 02:12:41;;;;;;;8.97;4.23;;;11.50;99.90;;;;;;5111059;28;20185;-84
2022/12/24 02:15:10;;;;;;;10.30;3.90;;;11.60;99.90;;;;;;5110212;28;20190;-86
2022/12/24 02:18:01;;;;;;;6.37;3.67;;;11.60;99.90;;;;;;5105232;28;20206;-84
2022/12/24 02:20:38;;;;;;;8.07;3.73;;;11.50;99.90;;;;;;5103648;28;20209;-84
2022/12/24 02:23:31;;;;;;;9.83;3.93;;;11.30;99.90;;;;;;5109586;28;20190;-86
2022/12/24 02:26:13;;;;;;;7.10;3.57;;;11.20;99.90;;;;;;5109951;28;20238;-84
2022/12/24 02:28:41;;;;;;;7.03;3.37;;;11.20;99.90;;;;;;5109734;28;20297;-85
2022/12/24 02:31:27;;;;;;;11.20;4.07;;;11.20;99.90;;;;;;5107315;28;20192;-85
2022/12/24 02:33:56;;;;;;;7.30;3.97;;;11.20;99.90;;;;;;5092885;28;20182;-83
2022/12/24 02:36:39;;;;;;;10.07;4.63;;;11.10;99.90;;;;;;5116016;28;20194;-89
2022/12/24 02:39:10;;;;;;;12.93;4.33;;;11.20;99.90;;;;;;5117871;28;20223;-86
2022/12/24 02:44:29;;;;;;;8.67;3.47;;;11.20;99.90;;;;;;5114682;28;20226;-85
2022/12/24 02:46:58;;;;;;;8.70;4.27;;;11.20;99.90;;;;;;5102690;28;20190;-83
2022/12/24 02:49:24;;;;;;;13.07;4.40;;;11.30;99.90;;;;;;5087051;28;20251;-83
2022/12/24 02:51:50;;;;;;;14.40;5.23;;;11.20;99.90;;;;;;5105700;28;20190;-84
2022/12/24 02:54:16;;;;;;;8.30;3.67;;;11.20;99.90;;;;;;5087312;28;20182;-83
2022/12/24 02:56:51;;;;;;;9.07;4.20;;;11.20;99.90;;;;;;5087885;28;20201;-83
2022/12/24 02:59:25;;;;;;;7.90;3.93;;;11.20;99.90;;;;;;5105722;28;20253;-86
2022/12/24 03:02:20;;;;;;;8.00;4.10;;;11.30;99.90;;;;;;5106712;28;20192;-82
2022/12/24 03:04:51;;;;;;;11.13;4.00;;;11.50;99.90;;;;;;5106507;28;20185;-84
2022/12/24 03:07:56;;;;;;;12.60;4.27;;;11.50;99.90;;;;;;5104937;28;20189;-86
2022/12/24 03:10:33;;;;;;;10.33;3.87;;;11.50;99.90;;;;;;5108353;28;20229;-85
2022/12/24 03:13:05;;;;;;;11.70;4.43;;;11.60;99.90;;;;;;5104119;28;20169;-86
2022/12/24 03:15:32;;;;;;;9.53;4.60;;;11.70;99.90;;;;;;5111369;28;20198;-83
2022/12/24 03:18:01;;;;;;;11.30;4.70;;;11.70;99.90;;;;;;5088042;28;20626;-84
2022/12/24 03:20:53;;;;;;;13.97;4.60;;;11.70;99.90;;;;;;5105227;28;20217;-84
2022/12/24 03:23:19;;;;;;;11.50;4.33;;;11.70;99.90;;;;;;5101695;28;20207;-85
2022/12/24 03:25:45;;;;;;;11.33;4.70;;;11.60;99.90;;;;;;5106156;28;20185;-83
2022/12/24 03:28:13;;;;;;;13.40;4.20;;;11.60;99.90;;;;;;5106819;28;20214;-83
2022/12/24 03:30:41;;;;;;;8.97;4.83;;;11.70;99.90;;;;;;5106712;28;20300;-84
2022/12/24 03:33:07;;;;;;;11.33;4.27;;;11.70;99.90;;;;;;5107182;28;20189;-83
2022/12/24 03:35:33;;;;;;;8.73;4.23;;;11.70;99.90;;;;;;5106737;28;20186;-85
2022/12/24 03:37:58;;;;;;;11.37;4.13;;;11.70;99.90;;;;;;5106664;28;20218;-83
2022/12/24 03:40:24;;;;;;;14.70;4.97;;;11.60;99.90;;;;;;5106898;28;20271;-84
2022/12/24 03:42:50;;;;;;;10.40;4.53;;;11.50;99.90;;;;;;5105819;28;20190;-83
2022/12/24 03:45:16;;;;;;;11.30;4.27;;;11.50;99.90;;;;;;5090489;28;20210;-85
2022/12/24 03:47:41;;;;;;;10.63;4.70;;;11.50;99.90;;;;;;5107894;28;20214;-82
2022/12/24 03:50:07;;;;;;;7.20;4.33;;;11.50;99.90;;;;;;5106154;28;20205;-84
2022/12/24 03:52:33;;;;;;;12.90;4.53;;;11.50;99.90;;;;;;5090259;28;20187;-83
2022/12/24 03:54:59;;;;;;;9.53;3.83;;;11.30;99.90;;;;;;5093808;28;20186;-84
2022/12/24 03:57:25;;;;;;;11.97;4.47;;;11.20;99.90;;;;;;5090964;28;20200;-86
2022/12/24 03:59:50;;;;;;;13.03;4.97;;;11.20;99.90;;;;;;5110458;28;20208;-85
2022/12/24 04:02:16;;;;;;;13.33;4.60;;;11.20;99.90;;;;;;5109314;28;20192;-85
2022/12/24 04:04:42;;;;;;;16.00;4.17;;;11.20;99.90;;;;;;5086049;28;20184;-84
2022/12/24 04:07:08;;;;;;;10.57;4.23;;;11.30;99.90;;;;;;5109913;28;20192;-86
2022/12/24 04:09:34;;;;;;;13.07;4.60;;;11.30;99.90;;;;;;5108681;28;20293;-83
2022/12/24 04:11:59;;;;;;;13.17;4.80;;;11.30;99.90;;;;;;5109568;28;20249;-86
2022/12/24 04:14:25;;;;;;;10.50;4.27;;;11.10;99.90;;;;;;5106981;28;20181;-84
2022/12/24 04:16:51;;;;;;;13.60;4.60;;;11.20;99.90;;;;;;5110164;28;20182;-85
2022/12/24 04:19:16;;;;;;;11.00;4.37;;;11.20;99.90;;;;;;5111707;28;20217;-85
2022/12/24 04:21:42;;;;;;;12.17;4.50;;;11.20;99.90;;;;;;5114086;28;20212;-87
2022/12/24 04:24:08;;;;;;;11.97;4.67;;;11.10;99.90;;;;;;5114296;28;20216;-84
2022/12/24 04:26:34;;;;;;;11.50;4.23;;;11.10;99.90;;;;;;5113838;28;20189;-86
2022/12/24 04:28:59;;;;;;;14.77;4.73;;;11.10;99.90;;;;;;5113129;28;20222;-85
2022/12/24 04:31:25;;;;;;;10.37;4.93;;;11.10;99.90;;;;;;5113542;28;20189;-84
2022/12/24 04:33:52;;;;;;;14.33;5.00;;;11.10;99.90;;;;;;5094862;28;20272;-86
2022/12/24 04:36:19;;;;;;;10.07;4.50;;;11.20;99.90;;;;;;5111194;28;20236;-85
2022/12/24 04:38:46;;;;;;;11.00;4.00;;;11.30;99.90;;;;;;5112618;28;20210;-84
2022/12/24 04:41:15;;;;;;;15.57;4.70;;;11.30;99.90;;;;;;5112436;28;20201;-84
2022/12/24 04:43:41;;;;;;;10.40;4.70;;;11.40;99.90;;;;;;5112226;28;20177;-85
2022/12/24 04:46:13;;;;;;;14.77;4.77;;;11.30;99.90;;;;;;5112895;28;20207;-85
2022/12/24 04:48:40;;;;;;;13.47;4.20;;;11.30;99.90;;;;;;5111970;28;20579;-83
2022/12/24 04:51:07;;;;;;;11.13;4.73;;;11.30;99.90;;;;;;5110406;28;20188;-84
2022/12/24 04:53:34;;;;;;;11.37;4.70;;;11.20;99.90;;;;;;5112888;28;20204;-86
2022/12/24 04:56:00;;;;;;;13.00;5.17;;;11.20;99.90;;;;;;5113096;28;20195;-84
2022/12/24 04:58:27;;;;;;;12.43;4.27;;;11.10;99.90;;;;;;5111404;28;20175;-84
2022/12/24 05:00:52;;;;;;;12.17;5.10;;;11.30;99.90;;;;;;5111944;28;20192;-85
2022/12/24 05:03:19;;;;;;;12.47;4.73;;;11.30;99.90;;;;;;5110794;28;20193;-85
2022/12/24 05:05:44;;;;;;;9.43;4.77;;;11.30;99.90;;;;;;5112323;28;20268;-82
2022/12/24 05:08:10;;;;;;;13.90;4.87;;;11.30;99.90;;;;;;5105538;28;20241;-86
2022/12/24 05:10:36;;;;;;;13.03;4.17;;;11.30;99.90;;;;;;5112082;28;20197;-84
2022/12/24 05:13:02;;;;;;;12.53;4.70;;;11.20;99.90;;;;;;5111398;28;20220;-86
2022/12/24 05:15:28;;;;;;;8.73;4.50;;;11.20;99.90;;;;;;5112254;28;20216;-83
2022/12/24 05:17:54;;;;;;;12.53;4.47;;;11.20;99.90;;;;;;5107573;28;20186;-83
2022/12/24 05:20:20;;;;;;;9.07;3.87;;;11.20;99.90;;;;;;5112292;28;20572;-85
2022/12/24 05:28:23;;;;;;;8.87;4.30;;;11.10;99.90;;;;;;5112170;28;20223;-85
2022/12/24 05:30:49;;;;;;;11.57;4.43;;;11.10;99.90;;;;;;5095419;28;20172;-84
2022/12/24 05:33:16;;;;;;;11.90;4.43;;;11.20;99.90;;;;;;5112803;28;20195;-87
2022/12/24 05:35:41;;;;;;;11.00;4.20;;;11.20;99.90;;;;;;5112779;28;20233;-87
2022/12/24 05:38:07;;;;;;;16.07;5.10;;;11.10;99.90;;;;;;5112647;28;20250;-87
2022/12/24 05:40:33;;;;;;;9.73;4.43;;;11.20;99.90;;;;;;5112987;28;20215;-86
2022/12/24 05:42:59;;;;;;;7.90;4.00;;;11.20;99.90;;;;;;5110750;28;20184;-84
2022/12/24 05:45:24;;;;;;;10.57;4.20;;;11.30;99.90;;;;;;5108769;28;20253;-87
2022/12/24 05:47:50;;;;;;;10.77;4.60;;;11.30;99.90;;;;;;5110241;28;20211;-86
2022/12/24 05:50:16;;;;;;;16.10;4.60;;;11.30;99.90;;;;;;5093539;28;20204;-84
2022/12/24 05:52:41;;;;;;;12.27;4.27;;;11.20;99.90;;;;;;5112325;28;20220;-86
2022/12/24 05:55:08;;;;;;;11.37;4.23;;;11.30;99.90;;;;;;5110732;28;20192;-83
2022/12/24 05:57:33;;;;;;;13.80;4.73;;;11.40;99.90;;;;;;5111375;28;20667;-85
2022/12/24 05:59:59;;;;;;;10.60;4.30;;;11.30;99.90;;;;;;5110891;28;20264;-86
2022/12/24 06:02:25;;;;;;;10.97;4.50;;;11.30;99.90;;;;;;5110486;28;20179;-86
2022/12/24 06:04:50;;;;;;;14.30;5.27;;;11.20;99.90;;;;;;5109174;28;20261;-85
2022/12/24 06:07:16;;;;;;;11.73;4.57;;;11.30;99.90;;;;;;5100313;28;20182;-86
2022/12/24 06:09:42;;;;;;;12.23;4.17;;;11.40;99.90;;;;;;5085290;28;20324;-85
2022/12/24 06:12:07;;;;;;;10.37;4.47;;;11.40;99.90;;;;;;5111496;28;20190;-83
2022/12/24 06:14:33;;;;;;;8.73;3.90;;;11.40;99.90;;;;;;5110534;28;20205;-87
2022/12/24 06:16:59;;;;;;;8.53;4.77;;;11.40;99.90;;;;;;5110527;28;20204;-85
2022/12/24 06:19:24;;;;;;;13.63;4.53;;;11.40;99.90;;;;;;5110234;28;20216;-86
2022/12/24 06:21:50;;;;;;;11.23;4.33;;;11.40;99.90;;;;;;5110811;28;20219;-87
2022/12/24 06:24:15;;;;;;;8.63;4.20;;;11.30;99.90;;;;;;5109989;28;20188;-84
2022/12/24 06:26:41;;;;;;;11.43;5.00;;;11.30;99.90;;;;;;5105383;28;20188;-83
2022/12/24 06:29:07;;;;;;;16.37;4.50;;;11.40;99.90;;;;;;5092935;28;20260;-85
2022/12/24 06:31:33;;;;;;;7.70;4.03;;;11.40;99.90;;;;;;5111121;28;20188;-84
2022/12/24 06:33:58;;;;;;;11.00;5.00;;;11.50;99.90;;;;;;5110913;28;20186;-87
2022/12/24 06:36:24;;;;;;;10.93;4.83;;;11.50;99.90;;;;;;5111427;28;20200;-83
2022/12/24 06:38:53;;;;;;;10.80;3.87;;;11.40;99.90;;;;;;5109479;28;20667;-84
2022/12/24 06:41:18;;;;;;;10.17;4.10;;;11.30;99.90;;;;;;5109680;28;20190;-86
2022/12/24 06:43:46;;;;;;;13.47;4.80;;;11.30;99.90;;;;;;5111168;28;20619;-87
2022/12/24 06:46:13;;;;;;;13.47;4.83;;;11.30;99.90;;;;;;5111312;28;20189;-86
2022/12/24 06:48:38;;;;;;;10.13;4.77;;;11.30;99.90;;;;;;5109900;28;20197;-86
2022/12/24 06:51:05;;;;;;;15.00;4.40;;;11.30;99.90;;;;;;5111023;28;20717;-86
2022/12/24 06:53:31;;;;;;;16.07;7.07;;;11.40;99.90;;;;;;5111595;28;20196;-88
2022/12/24 06:56:07;;;;;;;9.17;4.60;;;11.30;99.90;;;;;;5110543;28;20192;-86
2022/12/24 06:58:34;;;;;;;14.97;7.87;;;11.40;99.90;;;;;;5109427;28;20204;-84
2022/12/24 07:01:05;;;;;;;20.23;12.30;;;11.40;99.90;;;;;;5110750;28;20221;-84
2022/12/24 07:03:31;;;;;;;11.97;4.70;;;11.40;99.90;;;;;;5100543;28;20244;-82
2022/12/24 07:05:58;;;;;;;15.13;5.40;;;11.40;99.90;;;;;;5107068;28;20182;-86
2022/12/24 07:08:23;;;;;;;15.07;5.20;;;11.40;99.90;;;;;;5108309;28;20193;-83
2022/12/24 07:10:50;;;;;;;13.87;5.43;;;11.40;99.90;;;;;;5110160;28;20191;-83
2022/12/24 07:13:16;;;;;;;14.53;4.67;;;11.40;99.90;;;;;;5110852;28;20181;-86
2022/12/24 07:15:42;;;;;;;14.20;4.90;;;11.40;99.90;;;;;;5110838;28;20257;-83
2022/12/24 07:18:08;;;;;;;9.83;4.53;;;11.40;99.90;;;;;;5110801;28;20199;-86
2022/12/24 07:20:33;;;;;;;14.43;4.63;;;11.40;99.90;;;;;;5112530;28;20234;-84
2022/12/24 07:22:59;;;;;;;11.33;4.70;;;11.40;99.90;;;;;;5094112;28;20277;-87
2022/12/24 07:25:25;;;;;;;14.27;4.50;;;11.40;99.90;;;;;;5110724;28;20268;-86
2022/12/24 07:27:51;;;;;;;9.67;4.73;;;11.30;99.90;;;;;;5111834;28;20265;-85
2022/12/24 07:30:17;;;;;;;13.10;4.97;;;11.30;99.90;;;;;;5111552;28;20212;-84
2022/12/24 07:32:42;;;;;;;14.27;5.27;;;11.30;99.90;;;;;;5111273;28;20188;-83
2022/12/24 07:35:08;;;;;;;15.30;5.27;;;11.20;99.90;;;;;;5108057;28;20198;-86
2022/12/24 07:37:34;;;;;;;14.47;4.27;;;11.20;99.90;;;;;;5111321;28;20184;-88
2022/12/24 07:40:00;;;;;;;15.63;4.10;;;11.20;99.90;;;;;;5107758;28;20699;-83
2022/12/24 07:42:26;;;;;;;12.70;4.73;;;11.30;99.90;;;;;;5111537;28;20189;-84
2022/12/24 07:44:51;;;;;;;14.37;4.83;;;11.30;99.90;;;;;;5111971;28;20241;-86
2022/12/24 07:47:17;;;;;;;12.70;4.20;;;11.10;99.90;;;;;;5113671;28;20186;-85
2022/12/24 07:49:43;;;;;;;12.73;4.93;;;11.20;99.90;;;;;;5112837;28;20240;-87
2022/12/24 07:52:09;;;;;;;15.30;5.30;;;11.20;99.90;;;;;;5112816;28;20200;-87
2022/12/24 07:54:34;;;;;;;14.13;4.37;;;11.00;99.90;;;;;;5115271;28;20191;-84
2022/12/24 07:57:00;;;;;;;16.23;5.50;;;11.00;99.90;;;;;;5109517;28;20199;-86
2022/12/24 07:59:26;;;;;;;14.47;4.37;;;11.00;99.90;;;;;;5102553;28;20255;-87
2022/12/24 08:01:52;;;;;;;8.03;4.47;;;11.10;99.90;;;;;;5114607;28;20181;-87
2022/12/24 08:04:17;;;;;;;14.40;4.70;;;11.10;99.90;;;;;;5109832;28;20212;-83
2022/12/24 08:06:43;;;;;;;12.30;4.63;;;11.20;99.90;;;;;;5102445;28;20205;-83
2022/12/24 08:09:09;;;;;;;11.63;5.33;;;11.20;99.90;;;;;;5106685;28;20215;-83
2022/12/24 08:11:34;;;;;;;10.00;4.53;;;11.20;99.90;;;;;;5102779;28;20203;-85
2022/12/24 08:14:00;;;;;;;10.57;4.70;;;11.30;99.90;;;;;;5104572;28;20186;-84
2022/12/24 08:16:26;;;;;;;11.67;4.13;;;11.20;99.90;;;;;;5102864;28;20211;-84
2022/12/24 08:18:52;;;;;;;11.37;4.60;;;11.20;99.90;;;;;;5095966;28;20207;-85
2022/12/24 08:21:18;;;;;;;12.97;5.10;;;11.30;99.90;;;;;;5106127;28;20237;-87
2022/12/24 08:23:45;;;;;;;9.47;4.67;;;11.20;99.90;;;;;;5086394;28;20194;-83
2022/12/24 08:26:11;;;;;;;11.13;4.70;;;11.10;99.90;;;;;;5101708;28;20209;-85
2022/12/24 08:28:37;;;;;;;15.23;5.10;;;11.10;99.90;;;;;;5106481;28;20266;-83
2022/12/24 08:31:03;;;;;;;13.10;4.73;;;11.20;99.90;;;;;;5079071;28;20206;-82
2022/12/24 08:33:30;;;;;;;12.83;4.80;;;11.30;99.90;;;;;;5111630;28;20185;-85
2022/12/24 08:35:56;;;;;;;13.80;4.57;;;11.20;99.90;;;;;;5114000;28;20178;-85
2022/12/24 08:38:22;;;;;;;13.30;4.43;;;11.30;99.90;;;;;;5115669;28;20190;-86
2022/12/24 08:40:48;;;;;;;13.00;4.77;;;11.20;99.90;;;;;;5108098;28;20197;-88
2022/12/24 08:43:18;;;;;;;11.73;4.23;;;11.20;99.90;;;;;;5108464;28;20178;-82
2022/12/24 08:45:45;;;;;;;11.67;4.27;;;11.10;99.90;;;;;;5100295;28;20266;-82
2022/12/24 08:48:11;;;;;;;10.13;4.93;;;11.00;99.90;;;;;;5083892;28;20306;-82
2022/12/24 08:50:40;;;;;;;13.03;4.60;;;11.00;99.90;;;;;;5103091;28;20205;-85
2022/12/24 08:53:07;;;;;;;12.57;4.83;;;11.00;99.90;;;;;;5090100;28;20182;-84
2022/12/24 08:55:33;;;;;;;13.53;4.60;;;11.10;99.90;;;;;;5100101;28;20197;-84
2022/12/24 08:57:59;;;;;;;11.87;5.50;;;11.10;99.90;;;;;;5101405;28;20275;-85
2022/12/24 09:00:26;;;;;;;10.40;4.90;;;11.20;99.90;;;;;;5102649;28;20222;-85
2022/12/24 09:02:51;;;;;;;12.70;4.53;;;11.10;99.90;;;;;;5098036;28;20197;-84
2022/12/24 09:05:17;;;;;;;12.13;4.30;;;11.10;99.90;;;;;;5096865;28;20191;-83
2022/12/24 09:07:43;;;;;;;7.90;4.37;;;11.10;99.90;;;;;;5101323;28;20208;-83
2022/12/24 09:10:09;;;;;;;14.23;5.27;;;11.10;99.90;;;;;;5106738;28;20202;-83
2022/12/24 09:12:35;;;;;;;16.50;5.20;;;11.10;99.90;;;;;;5098869;28;20194;-84
2022/12/24 09:15:02;;;;;;;13.03;5.27;;;11.10;99.90;;;;;;5104157;28;20181;-83
2022/12/24 09:17:28;;;;;;;11.57;4.40;;;11.10;99.90;;;;;;5085943;28;20269;-85
2022/12/24 09:19:54;;;;;;;17.93;4.63;;;11.20;99.90;;;;;;5103730;28;20209;-85
2022/12/24 09:22:20;;;;;;;10.07;4.57;;;11.10;99.90;;;;;;5099162;28;20205;-84
2022/12/24 09:24:46;;;;;;;14.13;5.20;;;11.30;99.90;;;;;;5100756;28;20486;-87
2022/12/24 09:27:11;;;;;;;12.13;4.87;;;11.30;99.90;;;;;;5103386;28;20181;-85
2022/12/24 09:29:39;;;;;;;10.87;5.40;;;11.10;99.90;;;;;;5103312;28;20222;-83
2022/12/24 09:32:07;;;;;;;13.83;5.47;;;11.10;99.90;;;;;;5098911;28;20207;-82
2022/12/24 09:34:32;;;;;;;14.63;5.13;;;11.00;99.90;;;;;;5102358;28;20210;-83
2022/12/24 09:36:59;;;;;;;13.47;5.00;;;11.00;99.90;;;;;;5100371;28;20189;-82
2022/12/24 09:39:25;;;;;;;16.17;4.97;;;11.10;99.90;;;;;;5086354;28;20558;-83
2022/12/24 09:41:53;;;;;;;15.23;5.67;;;10.90;99.90;;;;;;5107127;28;20189;-85
2022/12/24 09:44:24;;;;;;;14.37;5.20;;;10.80;99.90;;;;;;5098442;28;20180;-79
2022/12/24 09:46:52;;;;;;;16.33;4.73;;;10.70;99.90;;;;;;5091760;28;20555;-79
2022/12/24 09:49:31;;;;;;;14.43;4.70;;;10.60;99.90;;;;;;5080312;28;20246;-81
2022/12/24 09:52:05;;;;;;;12.10;4.80;;;10.60;99.90;;;;;;5096069;28;20445;-82
2022/12/24 09:54:57;;;;;;;12.53;4.60;;;10.50;99.90;;;;;;5099557;28;20190;-78
2022/12/24 09:57:30;;;;;;;11.30;4.80;;;10.50;99.90;;;;;;5096472;28;20181;-81
2022/12/24 09:59:56;;;;;;;18.97;5.70;;;10.40;99.90;;;;;;5063539;28;20209;-79
2022/12/24 10:02:22;;;;;;;17.70;5.43;;;10.50;99.90;;;;;;5098530;28;20183;-80
2022/12/24 10:04:48;;;;;;;17.30;4.97;;;10.40;99.90;;;;;;5098216;28;20188;-79
2022/12/24 10:07:35;;;;;;;15.90;5.20;;;10.30;99.90;;;;;;5100643;28;20900;-79
2022/12/24 10:10:20;;;;;;;20.83;5.80;;;10.30;99.90;;;;;;5079657;28;20215;-80
2022/12/24 10:12:45;;;;;;;12.83;4.97;;;10.30;99.90;;;;;;5098777;28;20179;-80
2022/12/24 10:15:59;;;;;;;14.87;4.90;;;10.30;99.90;;;;;;5095962;28;20200;-80
2022/12/24 10:18:44;;;;;;;14.80;4.90;;;10.30;99.90;;;;;;5025767;28;20217;-84
2022/12/24 10:21:25;;;;;;;16.33;5.57;;;10.30;99.90;;;;;;5024546;28;20393;-87
2022/12/24 10:23:59;;;;;;;21.10;5.47;;;10.40;99.90;;;;;;5069324;28;20242;-86
2022/12/24 10:26:38;;;;;;;18.27;5.67;;;10.50;99.90;;;;;;5106322;28;20191;-86
2022/12/24 10:29:19;;;;;;;18.17;5.80;;;10.50;99.90;;;;;;5104326;28;20205;-86
2022/12/24 10:32:06;;;;;;;16.93;5.27;;;10.60;99.90;;;;;;5104327;28;20182;-86
2022/12/24 10:34:41;;;;;;;10.67;5.73;;;10.60;99.90;;;;;;5103518;28;20174;-86
2022/12/24 10:37:13;;;;;;;12.33;4.90;;;10.60;99.90;;;;;;5103458;28;20651;-87
2022/12/24 10:39:39;;;;;;;16.83;5.20;;;10.50;99.90;;;;;;5104502;28;20261;-85
2022/12/24 10:42:06;;;;;;;14.97;5.70;;;10.60;99.90;;;;;;5104683;28;20227;-80
2022/12/24 10:44:33;;;;;;;21.37;5.73;;;10.80;99.90;;;;;;5106160;28;20636;-84
2022/12/24 10:46:59;;;;;;;14.40;5.20;;;10.90;99.90;;;;;;5104915;28;20177;-83
2022/12/24 10:49:42;;;;;;;13.50;5.50;;;11.00;99.90;;;;;;5100234;28;20209;-83
2022/12/24 10:52:15;;;;;;;15.50;5.60;;;10.90;99.90;;;;;;5102146;28;20194;-85
2022/12/24 10:55:04;;;;;;;13.83;5.53;;;10.90;99.90;;;;;;5101649;28;20192;-82
2022/12/24 10:57:30;;;;;;;15.97;5.60;;;10.80;99.90;;;;;;5079621;28;20202;-85
2022/12/24 10:59:56;;;;;;;15.13;5.20;;;10.90;99.90;;;;;;5105130;28;20300;-86
2022/12/24 11:02:31;;;;;;;16.77;5.40;;;11.00;99.90;;;;;;5100883;28;20190;-83
2022/12/24 11:04:59;;;;;;;16.30;5.10;;;11.20;99.90;;;;;;5101368;28;20190;-83
2022/12/24 11:07:26;;;;;;;16.17;5.63;;;11.10;99.90;;;;;;5100815;28;20254;-84
2022/12/24 11:09:58;;;;;;;17.63;5.37;;;11.40;99.90;;;;;;5097628;28;20316;-83
2022/12/24 11:12:33;;;;;;;12.03;5.40;;;11.40;99.90;;;;;;5078545;28;20239;-84
2022/12/24 11:15:16;;;;;;;12.10;5.30;;;11.50;99.90;;;;;;5097833;28;20179;-84
2022/12/24 11:17:51;;;;;;;17.47;5.53;;;11.70;99.90;;;;;;5097999;28;20233;-85
2022/12/24 11:20:20;;;;;;;12.33;5.30;;;11.90;99.90;;;;;;5095789;28;20197;-87
2022/12/24 11:22:49;;;;;;;12.00;5.33;;;12.10;99.90;;;;;;5099594;28;20201;-84
2022/12/24 11:25:21;;;;;;;14.17;5.67;;;11.80;99.90;;;;;;5100228;28;20181;-82
2022/12/24 11:27:49;;;;;;;12.40;5.07;;;11.70;99.90;;;;;;5104218;28;20192;-87
2022/12/24 11:30:15;;;;;;;20.23;6.00;;;11.50;99.90;;;;;;5101986;28;20202;-87
2022/12/24 11:32:42;;;;;;;12.57;5.33;;;11.30;99.90;;;;;;5100087;28;20197;-85
2022/12/24 11:35:16;;;;;;;12.53;5.40;;;11.30;99.90;;;;;;5101071;28;20600;-83
2022/12/24 11:37:42;;;;;;;12.60;5.10;;;11.20;99.90;;;;;;5099710;28;20177;-85
2022/12/24 11:40:22;;;;;;;13.57;5.57;;;11.20;99.90;;;;;;5102509;28;20198;-84
2022/12/24 11:42:52;;;;;;;13.27;5.93;;;11.30;99.90;;;;;;5092353;28;20279;-83
2022/12/24 11:45:30;;;;;;;15.40;5.60;;;11.20;99.90;;;;;;5096356;28;20210;-84
2022/12/24 11:47:56;;;;;;;14.20;5.67;;;11.10;99.90;;;;;;5097344;28;20316;-82
2022/12/24 11:50:34;;;;;;;10.17;5.30;;;11.20;99.90;;;;;;5093210;28;20243;-82
2022/12/24 11:53:02;;;;;;;18.33;6.47;;;11.30;99.90;;;;;;5095744;28;20212;-86
2022/12/24 11:55:44;;;;;;;14.87;6.17;;;11.50;99.90;;;;;;5099678;28;20547;-83
2022/12/24 11:58:46;;;;;;;13.10;5.47;;;11.70;99.90;;;;;;5099108;28;20709;-86
2022/12/24 12:01:32;;;;;;;11.23;5.50;;;11.60;99.90;;;;;;5046673;28;20251;-84
2022/12/24 12:04:12;;;;;;;13.03;5.43;;;11.90;99.90;;;;;;5099872;28;20186;-82
2022/12/24 12:06:50;;;;;;;18.23;6.17;;;11.90;99.90;;;;;;5101968;28;20201;-82
2022/12/24 12:09:25;;;;;;;14.80;5.37;;;12.10;99.90;;;;;;5101591;28;20220;-84
2022/12/24 12:12:01;;;;;;;15.43;5.40;;;11.90;99.90;;;;;;5102611;28;20193;-82
2022/12/24 12:15:00;;;;;;;12.47;5.47;;;12.00;99.90;;;;;;5096292;28;20208;-92
2022/12/24 12:17:43;;;;;;;11.40;4.63;;;12.20;99.90;;;;;;5077292;28;20209;-82
2022/12/24 12:20:15;;;;;;;12.37;5.23;;;12.70;99.90;;;;;;5101161;28;20210;-79
2022/12/24 12:23:22;;;;;;;11.57;5.43;;;13.00;99.90;;;;;;5101364;28;20202;-81
2022/12/24 12:25:56;;;;;;;14.60;4.93;;;13.00;99.90;;;;;;5093236;28;20197;-79
2022/12/24 12:28:30;;;;;;;11.87;5.13;;;12.50;99.90;;;;;;5098060;28;20268;-87
2022/12/24 12:31:14;;;;;;;11.43;4.43;;;12.80;99.90;;;;;;5100659;28;20233;-83
2022/12/24 12:33:45;;;;;;;12.73;5.00;;;12.70;99.90;;;;;;5101273;28;20214;-85
2022/12/24 12:36:14;;;;;;;15.40;5.20;;;12.60;99.90;;;;;;5106022;28;20217;-88
2022/12/24 12:38:40;;;;;;;12.53;4.60;;;12.30;99.90;;;;;;5105488;28;20202;-88
2022/12/24 12:41:09;;;;;;;12.40;4.30;;;12.20;99.90;;;;;;5109309;28;20198;-87
2022/12/24 12:44:03;;;;;;;10.40;5.27;;;12.10;99.90;;;;;;5110330;28;20265;-89
2022/12/24 12:46:31;;;;;;;12.60;4.47;;;12.10;99.90;;;;;;5110722;28;20206;-89
2022/12/24 12:49:27;;;;;;;14.00;4.93;;;12.20;99.90;;;;;;5092422;28;20225;-86
2022/12/24 12:52:12;;;;;;;11.63;4.43;;;12.20;99.90;;;;;;5091332;28;20206;-86
2022/12/24 12:54:57;;;;;;;12.13;4.40;;;12.10;99.90;;;;;;5107958;28;20208;-86
2022/12/24 12:57:29;;;;;;;10.03;4.20;;;12.00;99.90;;;;;;5106890;28;20181;-86
2022/12/24 13:00:01;;;;;;;11.90;4.43;;;11.90;99.90;;;;;;5106593;28;20210;-89
2022/12/24 13:02:55;;;;;;;9.60;4.20;;;11.90;99.90;;;;;;5105592;28;20281;-86